createdAt,value
2023-06-19T00:00:04.583Z,74.47
2023-06-19T00:01:04.474Z,74.77
2023-06-19T00:02:04.531Z,75.17
2023-06-19T00:03:04.446Z,75.27
2023-06-19T00:04:04.417Z,75.27
2023-06-19T00:05:04.386Z,75.47
2023-06-19T00:06:04.364Z,75.41
2023-06-19T00:07:04.346Z,75.27
2023-06-19T00:08:04.325Z,75.81
2023-06-19T00:09:04.305Z,75.27
2023-06-19T00:10:04.283Z,76.01
2023-06-19T00:11:04.262Z,75.71
2023-06-19T00:12:04.246Z,75.71
2023-06-19T00:13:04.217Z,75.57
2023-06-19T00:14:04.209Z,75.60
2023-06-19T00:15:04.204Z,76.01
2023-06-19T00:16:04.216Z,75.81
2023-06-19T00:17:04.149Z,76.21
2023-06-19T00:18:04.213Z,76.31
2023-06-19T00:19:04.096Z,76.51
2023-06-19T00:20:04.078Z,76.21
2023-06-19T00:21:04.060Z,76.61
2023-06-19T00:22:04.033Z,76.71
2023-06-19T00:23:04.012Z,76.71
2023-06-19T00:24:04.038Z,76.51
2023-06-19T00:25:03.970Z,76.71
2023-06-19T00:26:03.950Z,76.11
2023-06-19T00:27:03.983Z,76.91
2023-06-19T00:28:03.909Z,76.51
2023-06-19T00:29:03.885Z,76.11
2023-06-19T00:30:03.873Z,76.51
2023-06-19T00:31:03.842Z,76.11
2023-06-19T00:32:03.823Z,76.21
2023-06-19T00:33:03.906Z,76.67
2023-06-19T00:34:03.799Z,76.31
2023-06-19T00:35:03.758Z,76.41
2023-06-19T00:36:03.742Z,75.47
2023-06-19T00:37:03.721Z,76.07
2023-06-19T00:38:03.701Z,76.17
2023-06-19T00:39:03.675Z,75.47
2023-06-19T00:40:03.655Z,75.57
2023-06-19T00:41:03.632Z,75.97
2023-06-19T00:42:03.611Z,76.17
2023-06-19T00:43:03.595Z,75.67
2023-06-19T00:44:03.570Z,75.67
2023-06-19T00:45:03.551Z,75.57
2023-06-19T00:46:03.599Z,74.63
2023-06-19T00:47:03.506Z,73.13
2023-06-19T00:48:03.511Z,72.00
2023-06-19T00:49:03.470Z,72.39
2023-06-19T00:50:03.472Z,71.59
2023-06-19T00:51:03.430Z,71.39
2023-06-19T00:52:03.413Z,71.59
2023-06-19T00:53:03.392Z,70.69
2023-06-19T00:54:03.372Z,70.39
2023-06-19T00:55:03.347Z,69.99
2023-06-19T00:56:03.328Z,69.59
2023-06-19T00:57:03.306Z,70.29
2023-06-19T00:58:03.295Z,69.29
2023-06-19T00:59:03.261Z,69.19
2023-06-19T01:00:03.243Z,69.79
2023-06-19T01:01:09.239Z,69.49
2023-06-19T01:02:03.287Z,68.39
2023-06-19T01:03:03.248Z,68.69
2023-06-19T01:04:03.256Z,68.99
2023-06-19T01:05:03.136Z,68.69
2023-06-19T01:06:03.141Z,68.49
2023-06-19T01:07:03.090Z,68.16
2023-06-19T01:08:03.095Z,67.76
2023-06-19T01:09:03.055Z,67.16
2023-06-19T01:10:03.029Z,67.66
2023-06-19T01:11:09.022Z,67.46
2023-06-19T01:12:02.990Z,68.46
2023-06-19T01:13:02.976Z,68.66
2023-06-19T01:14:02.944Z,68.36
2023-06-19T01:15:02.925Z,68.43
2023-06-19T01:16:02.905Z,67.93
2023-06-19T01:17:02.948Z,68.16
2023-06-19T01:18:02.910Z,67.52
2023-06-19T01:19:02.846Z,68.16
2023-06-19T01:20:02.818Z,68.66
2023-06-19T01:21:02.802Z,68.66
2023-06-19T01:22:02.803Z,68.46
2023-06-19T01:23:02.759Z,68.76
2023-06-19T01:24:02.764Z,68.16
2023-06-19T01:25:02.725Z,68.55
2023-06-19T01:26:02.693Z,68.66
2023-06-19T01:27:02.683Z,68.66
2023-06-19T01:28:02.655Z,68.66
2023-06-19T01:29:02.644Z,68.62
2023-06-19T01:30:02.613Z,68.76
2023-06-19T01:31:02.606Z,68.16
2023-06-19T01:32:02.572Z,68.66
2023-06-19T01:33:02.566Z,68.52
2023-06-19T01:34:02.547Z,68.62
2023-06-19T01:35:02.512Z,68.76
2023-06-19T01:36:02.494Z,68.32
2023-06-19T01:37:02.476Z,68.13
2023-06-19T01:38:02.576Z,68.43
2023-06-19T01:39:02.431Z,68.52
2023-06-19T01:40:02.416Z,68.13
2023-06-19T01:41:02.382Z,68.23
2023-06-19T01:42:02.364Z,67.13
2023-06-19T01:43:02.345Z,67.82
2023-06-19T01:44:02.319Z,67.52
2023-06-19T01:45:02.308Z,67.72
2023-06-19T01:46:02.317Z,67.72
2023-06-19T01:47:02.258Z,68.62
2023-06-19T01:48:02.280Z,68.26
2023-06-19T01:49:02.226Z,69.06
2023-06-19T01:50:02.249Z,69.96
2023-06-19T01:51:02.177Z,69.46
2023-06-19T01:52:02.153Z,70.16
2023-06-19T01:53:02.142Z,71.80
2023-06-19T01:54:02.144Z,72.19
2023-06-19T01:55:02.089Z,72.50
2023-06-19T01:56:02.076Z,72.80
2023-06-19T01:57:02.052Z,73.19
2023-06-19T01:58:02.037Z,73.30
2023-06-19T01:59:02.013Z,73.60
2023-06-19T02:00:02.015Z,74.03
2023-06-19T02:01:01.973Z,74.43
2023-06-19T02:02:01.938Z,74.33
2023-06-19T02:03:02.076Z,74.63
2023-06-19T02:04:02.062Z,74.60
2023-06-19T02:05:01.878Z,74.73
2023-06-19T02:06:01.908Z,74.84
2023-06-19T02:07:01.833Z,74.93
2023-06-19T02:08:01.813Z,75.54
2023-06-19T02:09:01.800Z,76.04
2023-06-19T02:10:01.798Z,77.78
2023-06-19T02:11:01.751Z,82.53
2023-06-19T02:12:01.735Z,86.58
2023-06-19T02:13:01.706Z,87.87
2023-06-19T02:14:01.688Z,89.66
2023-06-19T02:15:01.669Z,92.47
2023-06-19T02:16:01.671Z,93.62
2023-06-19T02:17:01.620Z,97.69
2023-06-19T02:18:01.669Z,94.67
2023-06-19T02:19:01.575Z,97.13
2023-06-19T02:20:01.583Z,98.04
2023-06-19T02:21:01.534Z,97.74
2023-06-19T02:22:01.524Z,97.64
2023-06-19T02:23:01.489Z,99.55
2023-06-19T02:24:01.492Z,99.75
2023-06-19T02:25:01.451Z,99.30
2023-06-19T02:26:01.444Z,99.99
2023-06-19T02:27:01.403Z,99.99
2023-06-19T02:28:01.400Z,99.99
2023-06-19T02:29:01.350Z,99.99
2023-06-19T02:30:01.328Z,99.99
2023-06-19T02:31:01.302Z,99.99
2023-06-19T02:32:01.280Z,99.99
2023-06-19T02:33:01.326Z,99.99
2023-06-19T02:34:01.236Z,99.99
2023-06-19T02:35:01.225Z,99.99
2023-06-19T02:36:01.194Z,99.99
2023-06-19T02:37:01.171Z,99.99
2023-06-19T02:38:01.141Z,99.99
2023-06-19T02:39:01.146Z,99.99
2023-06-19T02:40:01.095Z,99.99
2023-06-19T02:41:01.079Z,99.99
2023-06-19T02:42:01.062Z,99.99
2023-06-19T02:43:01.020Z,99.99
2023-06-19T02:44:01.000Z,99.99
2023-06-19T02:45:00.991Z,99.99
2023-06-19T02:46:01.018Z,99.99
2023-06-19T02:47:00.929Z,99.99
2023-06-19T02:48:00.935Z,99.99
2023-06-19T02:49:00.879Z,99.99
2023-06-19T02:50:00.865Z,99.99
2023-06-19T02:51:00.834Z,99.99
2023-06-19T02:52:00.813Z,99.99
2023-06-19T02:53:00.785Z,99.99
2023-06-19T02:54:00.767Z,99.99
2023-06-19T02:55:00.772Z,99.54
2023-06-19T02:56:00.724Z,99.10
2023-06-19T02:57:00.693Z,98.19
2023-06-19T02:58:00.712Z,99.40
2023-06-19T02:59:00.643Z,99.99
2023-06-19T03:00:00.628Z,98.29
2023-06-19T03:01:00.621Z,98.90
2023-06-19T03:02:00.573Z,96.98
2023-06-19T03:03:00.628Z,98.39
2023-06-19T03:04:00.523Z,99.30
2023-06-19T03:05:00.507Z,99.40
2023-06-19T03:06:00.488Z,99.99
2023-06-19T03:07:00.453Z,99.99
2023-06-19T03:08:00.440Z,99.99
2023-06-19T03:09:00.410Z,99.99
2023-06-19T03:10:00.396Z,99.99
2023-06-19T03:11:00.363Z,99.99
2023-06-19T03:12:00.331Z,99.99
2023-06-19T03:13:00.314Z,99.99
2023-06-19T03:14:00.307Z,99.99
2023-06-19T03:15:00.276Z,99.99
2023-06-19T03:16:00.238Z,99.99
2023-06-19T03:17:00.355Z,99.99
2023-06-19T03:18:00.226Z,99.99
2023-06-19T03:19:00.171Z,99.99
2023-06-19T03:20:00.186Z,99.99
2023-06-19T03:21:00.121Z,99.99
2023-06-19T03:22:00.176Z,99.99
2023-06-19T03:23:00.091Z,99.99
2023-06-19T03:24:00.070Z,99.99
2023-06-19T03:25:00.045Z,99.99
2023-06-19T03:26:00.012Z,99.99
2023-06-19T03:27:00.009Z,99.99
2023-06-19T03:27:59.961Z,99.99
2023-06-19T03:28:59.938Z,99.99
2023-06-19T03:29:59.941Z,99.99
2023-06-19T03:30:59.893Z,99.99
2023-06-19T03:31:59.885Z,99.99
2023-06-19T03:32:59.889Z,99.99
2023-06-19T03:33:59.830Z,99.99
2023-06-19T03:34:59.800Z,99.99
2023-06-19T03:35:59.776Z,99.99
2023-06-19T03:36:59.765Z,99.99
2023-06-19T03:37:59.731Z,99.99
2023-06-19T03:38:59.709Z,99.99
2023-06-19T03:39:59.684Z,99.99
2023-06-19T03:40:59.662Z,99.99
2023-06-19T03:41:59.654Z,99.99
2023-06-19T03:42:59.629Z,99.99
2023-06-19T03:43:59.590Z,99.99
2023-06-19T03:44:59.572Z,99.99
2023-06-19T03:45:59.609Z,99.99
2023-06-19T03:46:59.523Z,99.99
2023-06-19T03:47:59.616Z,99.99
2023-06-19T03:48:59.508Z,99.99
2023-06-19T03:50:11.156Z,99.99
2023-06-19T03:50:59.432Z,99.99
2023-06-19T03:51:59.417Z,99.99
2023-06-19T03:52:59.405Z,99.99
2023-06-19T03:53:59.365Z,99.99
2023-06-19T03:54:59.355Z,99.99
2023-06-19T03:55:59.339Z,99.99
2023-06-19T03:56:59.295Z,99.99
2023-06-19T03:57:59.275Z,99.99
2023-06-19T03:58:59.251Z,99.99
2023-06-19T03:59:59.226Z,99.99
2023-06-19T04:00:59.209Z,99.99
2023-06-19T04:01:59.338Z,99.99
2023-06-19T04:02:59.258Z,99.99
2023-06-19T04:03:59.167Z,99.99
2023-06-19T04:04:59.116Z,99.99
2023-06-19T04:05:59.093Z,99.99
2023-06-19T04:06:59.069Z,99.99
2023-06-19T04:07:59.043Z,99.99
2023-06-19T04:08:59.023Z,99.99
2023-06-19T04:09:58.998Z,99.99
2023-06-19T04:10:58.990Z,99.99
2023-06-19T04:11:58.960Z,99.99
2023-06-19T04:12:58.932Z,99.99
2023-06-19T04:13:58.906Z,99.99
2023-06-19T04:14:58.885Z,99.99
2023-06-19T04:15:58.870Z,99.99
2023-06-19T04:16:58.845Z,99.99
2023-06-19T04:17:58.847Z,99.99
2023-06-19T04:18:58.803Z,99.99
2023-06-19T04:19:58.786Z,99.99
2023-06-19T04:20:58.798Z,99.99
2023-06-19T04:21:58.733Z,99.99
2023-06-19T04:22:58.708Z,99.99
2023-06-19T04:23:58.730Z,99.99
2023-06-19T04:24:58.665Z,99.99
2023-06-19T04:25:58.638Z,99.99
2023-06-19T04:26:58.638Z,99.99
2023-06-19T04:27:58.591Z,99.99
2023-06-19T04:28:58.579Z,99.99
2023-06-19T04:29:58.554Z,99.99
2023-06-19T04:30:58.528Z,99.99
2023-06-19T04:31:58.502Z,99.99
2023-06-19T04:32:58.575Z,99.99
2023-06-19T04:33:58.489Z,99.99
2023-06-19T04:34:58.448Z,99.99
2023-06-19T04:35:58.409Z,99.99
2023-06-19T04:36:58.388Z,99.99
2023-06-19T04:37:58.370Z,99.99
2023-06-19T04:38:58.341Z,99.99
2023-06-19T04:39:58.325Z,99.99
2023-06-19T04:40:58.296Z,99.99
2023-06-19T04:41:58.274Z,99.99
2023-06-19T04:42:58.264Z,99.99
2023-06-19T04:43:58.228Z,99.99
2023-06-19T04:44:58.213Z,99.99
2023-06-19T04:45:58.245Z,99.99
2023-06-19T04:46:58.161Z,99.99
2023-06-19T04:47:58.213Z,99.99
2023-06-19T04:48:58.112Z,99.99
2023-06-19T04:49:58.124Z,99.99
2023-06-19T04:50:58.070Z,99.99
2023-06-19T04:51:58.049Z,99.99
2023-06-19T04:52:58.024Z,99.99
2023-06-19T04:53:57.999Z,99.99
2023-06-19T04:54:57.979Z,99.99
2023-06-19T04:55:58.772Z,99.99
2023-06-19T04:56:57.934Z,99.99
2023-06-19T04:57:57.911Z,99.99
2023-06-19T04:58:57.886Z,99.99
2023-06-19T04:59:57.872Z,99.99
2023-06-19T05:00:57.842Z,99.99
2023-06-19T05:01:57.860Z,99.99
2023-06-19T05:02:57.816Z,99.99
2023-06-19T05:03:57.800Z,99.99
2023-06-19T05:04:57.753Z,99.99
2023-06-19T05:05:57.752Z,99.99
2023-06-19T05:06:57.710Z,99.99
2023-06-19T05:07:57.705Z,99.99
2023-06-19T05:08:57.669Z,99.99
2023-06-19T05:09:57.645Z,99.99
2023-06-19T05:10:57.641Z,99.99
2023-06-19T05:11:57.596Z,99.99
2023-06-19T05:12:57.576Z,99.99
2023-06-19T05:13:57.552Z,99.99
2023-06-19T05:14:57.529Z,99.99
2023-06-19T05:15:57.563Z,99.99
2023-06-19T05:16:57.531Z,99.99
2023-06-19T05:17:57.566Z,99.99
2023-06-19T05:18:57.438Z,99.99
2023-06-19T05:19:57.443Z,99.99
2023-06-19T05:20:57.399Z,99.99
2023-06-19T05:21:57.400Z,99.99
2023-06-19T05:22:57.348Z,99.99
2023-06-19T05:23:57.331Z,99.99
2023-06-19T05:24:57.309Z,99.99
2023-06-19T05:25:57.280Z,99.99
2023-06-19T05:26:57.257Z,99.99
2023-06-19T05:27:57.236Z,99.99
2023-06-19T05:28:57.212Z,99.99
2023-06-19T05:29:57.192Z,99.99
2023-06-19T05:30:57.173Z,99.99
2023-06-19T05:31:57.158Z,99.99
2023-06-19T05:32:57.213Z,99.99
2023-06-19T05:33:57.114Z,99.99
2023-06-19T05:34:57.085Z,99.99
2023-06-19T05:35:57.059Z,99.99
2023-06-19T05:36:57.040Z,99.99
2023-06-19T05:37:57.036Z,99.99
2023-06-19T05:38:56.984Z,99.99
2023-06-19T05:39:56.963Z,99.99
2023-06-19T05:40:56.992Z,99.99
2023-06-19T05:41:56.917Z,99.99
2023-06-19T05:42:56.904Z,99.99
2023-06-19T05:43:56.874Z,99.99
2023-06-19T05:44:56.850Z,99.99
2023-06-19T05:45:57.013Z,99.99
2023-06-19T05:46:56.807Z,99.99
2023-06-19T05:47:56.817Z,99.99
2023-06-19T05:48:56.758Z,99.99
2023-06-19T05:49:56.735Z,99.99
2023-06-19T05:50:56.715Z,99.99
2023-06-19T05:51:56.693Z,99.99
2023-06-19T05:52:56.673Z,99.99
2023-06-19T05:53:56.667Z,99.99
2023-06-19T05:54:56.667Z,99.99
2023-06-19T05:55:56.601Z,99.99
2023-06-19T05:56:56.581Z,99.99
2023-06-19T05:57:56.559Z,99.99
2023-06-19T05:58:56.533Z,99.99
2023-06-19T05:59:56.511Z,99.99
2023-06-19T06:00:56.494Z,99.99
2023-06-19T06:01:56.489Z,99.99
2023-06-19T06:02:56.455Z,99.99
2023-06-19T06:03:56.423Z,99.99
2023-06-19T06:04:56.414Z,99.99
2023-06-19T06:05:56.374Z,99.99
2023-06-19T06:06:56.352Z,99.99
2023-06-19T06:07:56.328Z,99.99
2023-06-19T06:08:56.362Z,99.99
2023-06-19T06:09:56.305Z,99.99
2023-06-19T06:10:56.261Z,99.99
2023-06-19T06:11:56.240Z,99.99
2023-06-19T06:12:56.222Z,99.99
2023-06-19T06:13:56.193Z,99.99
2023-06-19T06:14:56.173Z,99.99
2023-06-19T06:15:56.158Z,99.99
2023-06-19T06:16:56.204Z,99.99
2023-06-19T06:17:56.211Z,99.99
2023-06-19T06:18:56.087Z,99.99
2023-06-19T06:19:56.062Z,99.99
2023-06-19T06:20:56.039Z,99.99
2023-06-19T06:21:56.021Z,99.99
2023-06-19T06:22:56.005Z,99.99
2023-06-19T06:23:56.041Z,99.99
2023-06-19T06:24:55.960Z,99.99
2023-06-19T06:25:55.944Z,99.99
2023-06-19T06:26:55.906Z,99.99
2023-06-19T06:27:55.888Z,99.99
2023-06-19T06:28:55.861Z,99.99
2023-06-19T06:29:55.858Z,99.99
2023-06-19T06:30:55.813Z,99.99
2023-06-19T06:31:55.798Z,99.99
2023-06-19T06:32:55.816Z,99.99
2023-06-19T06:33:55.754Z,99.99
2023-06-19T06:34:55.730Z,99.99
2023-06-19T06:35:55.712Z,99.99
2023-06-19T06:37:05.233Z,99.99
2023-06-19T06:37:55.656Z,99.99
2023-06-19T06:38:55.636Z,99.99
2023-06-19T06:39:55.612Z,99.99
2023-06-19T06:40:55.592Z,99.99
2023-06-19T06:41:55.625Z,99.99
2023-06-19T06:42:55.550Z,99.99
2023-06-19T06:43:55.531Z,99.99
2023-06-19T06:44:55.508Z,99.99
2023-06-19T06:45:55.499Z,99.99
2023-06-19T06:46:55.456Z,99.99
2023-06-19T06:47:55.485Z,99.99
2023-06-19T06:48:55.413Z,99.99
2023-06-19T06:49:55.391Z,99.99
2023-06-19T06:50:55.371Z,99.99
2023-06-19T06:51:57.660Z,99.99
2023-06-19T06:52:55.333Z,99.99
2023-06-19T06:53:55.304Z,99.99
2023-06-19T06:54:55.280Z,99.99
2023-06-19T06:55:55.261Z,99.99
2023-06-19T06:56:55.237Z,99.99
2023-06-19T06:57:55.241Z,99.99
2023-06-19T06:58:55.197Z,99.99
2023-06-19T06:59:55.173Z,99.99
2023-06-19T07:00:55.198Z,99.99
2023-06-19T07:01:55.158Z,99.99
2023-06-19T07:02:55.255Z,99.99
2023-06-19T07:03:55.648Z,99.99
2023-06-19T07:04:55.068Z,99.99
2023-06-19T07:05:55.049Z,99.99
2023-06-19T07:06:55.031Z,99.99
2023-06-19T07:07:55.012Z,99.99
2023-06-19T07:08:54.984Z,99.99
2023-06-19T07:09:54.990Z,99.99
2023-06-19T07:10:54.950Z,99.99
2023-06-19T07:11:54.925Z,99.84
2023-06-19T07:12:54.903Z,99.99
2023-06-19T07:13:54.990Z,96.88
2023-06-19T07:14:54.858Z,98.63
2023-06-19T07:15:54.838Z,98.43
2023-06-19T07:16:54.852Z,98.83
2023-06-19T07:17:54.858Z,98.83
2023-06-19T07:18:54.792Z,99.58
2023-06-19T07:19:54.767Z,98.73
2023-06-19T07:20:54.735Z,98.79
2023-06-19T07:21:54.719Z,97.78
2023-06-19T07:22:54.697Z,97.38
2023-06-19T07:23:54.683Z,97.18
2023-06-19T07:24:54.652Z,97.49
2023-06-19T07:25:54.636Z,98.49
2023-06-19T07:26:54.619Z,99.29
2023-06-19T07:27:54.591Z,98.83
2023-06-19T07:28:54.575Z,98.64
2023-06-19T07:29:54.575Z,94.78
2023-06-19T07:30:54.531Z,95.23
2023-06-19T07:31:54.509Z,95.84
2023-06-19T07:32:54.551Z,97.08
2023-06-19T07:33:54.467Z,96.04
2023-06-19T07:34:54.449Z,96.53
2023-06-19T07:35:54.430Z,96.53
2023-06-19T07:36:54.406Z,97.29
2023-06-19T07:37:54.400Z,96.19
2023-06-19T07:38:54.366Z,94.29
2023-06-19T07:39:54.352Z,94.79
2023-06-19T07:40:54.326Z,95.09
2023-06-19T07:41:54.305Z,96.09
2023-06-19T07:42:54.302Z,95.79
2023-06-19T07:43:54.268Z,95.69
2023-06-19T07:44:54.243Z,95.64
2023-06-19T07:45:54.332Z,96.04
2023-06-19T07:46:54.203Z,94.79
2023-06-19T07:47:54.199Z,93.69
2023-06-19T07:48:54.169Z,94.99
2023-06-19T07:49:54.147Z,95.49
2023-06-19T07:50:54.125Z,94.49
2023-06-19T07:51:54.106Z,94.89
2023-06-19T07:52:54.087Z,93.04
2023-06-19T07:53:54.068Z,93.74
2023-06-19T07:54:54.047Z,94.13
2023-06-19T07:55:54.026Z,94.48
2023-06-19T07:56:54.007Z,93.98
2023-06-19T07:57:53.987Z,93.63
2023-06-19T07:58:53.969Z,94.04
2023-06-19T07:59:53.945Z,93.63
2023-06-19T08:00:53.929Z,93.74
2023-06-19T08:01:53.928Z,94.23
2023-06-19T08:02:54.010Z,89.73
2023-06-19T08:03:53.983Z,91.74
2023-06-19T08:04:53.892Z,88.57
2023-06-19T08:05:53.825Z,91.74
2023-06-19T08:06:53.803Z,92.74
2023-06-19T08:07:53.784Z,92.83
2023-06-19T08:08:53.764Z,91.79
2023-06-19T08:10:00.598Z,92.99
2023-06-19T08:10:53.730Z,92.29
2023-06-19T08:11:53.703Z,89.59
2023-06-19T08:12:54.377Z,87.73
2023-06-19T08:13:53.660Z,86.83
2023-06-19T08:14:53.643Z,89.14
2023-06-19T08:15:53.627Z,92.49
2023-06-19T08:16:53.652Z,92.19
2023-06-19T08:17:53.740Z,88.79
2023-06-19T08:18:53.561Z,88.39
2023-06-19T08:19:53.542Z,91.29
2023-06-19T08:20:53.516Z,89.59
2023-06-19T08:21:53.518Z,85.19
2023-06-19T08:22:53.498Z,88.29
2023-06-19T08:23:53.486Z,89.65
2023-06-19T08:24:53.445Z,85.15
2023-06-19T08:25:53.452Z,85.75
2023-06-19T08:26:53.416Z,86.31
2023-06-19T08:27:53.377Z,89.70
2023-06-19T08:28:53.353Z,86.31
2023-06-19T08:29:53.339Z,89.06
2023-06-19T08:30:53.313Z,86.51
2023-06-19T08:31:53.293Z,83.81
2023-06-19T08:32:53.305Z,84.61
2023-06-19T08:33:54.779Z,85.71
2023-06-19T08:34:53.230Z,84.91
2023-06-19T08:35:53.211Z,87.81
2023-06-19T08:36:53.193Z,83.81
2023-06-19T08:37:53.169Z,86.17
2023-06-19T08:38:53.156Z,83.37
2023-06-19T08:39:53.149Z,82.07
2023-06-19T08:40:53.112Z,84.53
2023-06-19T08:41:53.095Z,83.63
2023-06-19T08:42:53.080Z,83.43
2023-06-19T08:43:53.063Z,83.99
2023-06-19T08:44:53.034Z,82.29
2023-06-19T08:45:53.038Z,82.89
2023-06-19T08:46:52.990Z,80.90
2023-06-19T08:47:52.977Z,80.04
2023-06-19T08:48:52.969Z,82.23
2023-06-19T08:49:52.958Z,82.89
2023-06-19T08:50:52.912Z,79.84
2023-06-19T08:51:52.893Z,82.93
2023-06-19T08:52:52.872Z,82.89
2023-06-19T08:53:52.855Z,82.50
2023-06-19T08:54:52.834Z,81.79
2023-06-19T08:55:52.816Z,81.24
2023-06-19T08:56:52.832Z,82.79
2023-06-19T08:57:52.775Z,81.84
2023-06-19T08:58:52.753Z,80.54
2023-06-19T08:59:52.738Z,82.03
2023-06-19T09:00:52.716Z,80.74
2023-06-19T09:01:52.708Z,80.74
2023-06-19T09:03:52.811Z,81.73
2023-06-19T09:04:52.637Z,81.73
2023-06-19T09:05:52.813Z,80.83
2023-06-19T09:06:52.685Z,81.34
2023-06-19T09:07:52.577Z,81.30
2023-06-19T09:08:52.580Z,80.86
2023-06-19T09:09:52.537Z,81.16
2023-06-19T09:10:52.518Z,79.66
2023-06-19T09:11:52.497Z,78.07
2023-06-19T09:12:52.480Z,78.07
2023-06-19T09:13:52.457Z,78.27
2023-06-19T09:14:52.450Z,80.56
2023-06-19T09:15:52.415Z,82.26
2023-06-19T09:16:52.402Z,79.66
2023-06-19T09:17:52.383Z,77.87
2023-06-19T09:18:52.355Z,78.97
2023-06-19T09:19:52.363Z,83.31
2023-06-19T09:20:52.324Z,79.13
2023-06-19T09:21:52.324Z,78.13
2023-06-19T09:22:52.281Z,77.93
2023-06-19T09:23:52.272Z,79.39
2023-06-19T09:24:52.292Z,78.19
2023-06-19T09:25:52.232Z,77.99
2023-06-19T09:26:52.196Z,76.30
2023-06-19T09:27:52.176Z,77.76
2023-06-19T09:28:52.162Z,76.66
2023-06-19T09:29:52.366Z,78.72
2023-06-19T09:30:52.118Z,78.02
2023-06-19T09:31:52.103Z,73.97
2023-06-19T09:32:52.131Z,75.57
2023-06-19T09:33:52.077Z,77.92
2023-06-19T09:34:52.174Z,76.72
2023-06-19T09:35:52.019Z,74.04
2023-06-19T09:36:52.006Z,74.63
2023-06-19T09:37:52.005Z,74.43
2023-06-19T09:38:51.961Z,71.28
2023-06-19T09:39:51.942Z,73.47
2023-06-19T09:40:51.921Z,73.47
2023-06-19T09:41:51.902Z,74.13
2023-06-19T09:42:51.884Z,73.34
2023-06-19T09:43:51.863Z,74.84
2023-06-19T09:44:51.866Z,74.24
2023-06-19T09:45:51.834Z,74.93
2023-06-19T09:46:51.845Z,74.73
2023-06-19T09:47:51.876Z,74.63
2023-06-19T09:48:51.769Z,76.32
2023-06-19T09:49:51.752Z,76.13
2023-06-19T09:50:51.740Z,75.63
2023-06-19T09:51:51.719Z,77.48
2023-06-19T09:52:51.691Z,77.68
2023-06-19T09:53:51.712Z,76.65
2023-06-19T09:54:51.651Z,77.15
2023-06-19T09:55:51.637Z,77.11
2023-06-19T09:56:51.615Z,77.51
2023-06-19T09:57:51.588Z,74.39
2023-06-19T09:58:51.572Z,73.24
2023-06-19T09:59:51.566Z,68.83
2023-06-19T10:00:51.547Z,69.72
2023-06-19T10:01:51.516Z,69.72
2023-06-19T10:02:51.607Z,69.62
2023-06-19T10:03:51.502Z,70.29
2023-06-19T10:04:51.461Z,71.67
2023-06-19T10:05:51.440Z,71.08
2023-06-19T10:06:51.424Z,70.06
2023-06-19T10:07:51.404Z,66.48
2023-06-19T10:08:51.390Z,68.17
2023-06-19T10:09:51.401Z,65.89
2023-06-19T10:10:51.352Z,65.59
2023-06-19T10:11:51.326Z,66.15
2023-06-19T10:12:51.311Z,64.40
2023-06-19T10:13:51.288Z,64.67
2023-06-19T10:14:51.271Z,64.34
2023-06-19T10:15:51.263Z,64.86
2023-06-19T10:16:51.323Z,65.26
2023-06-19T10:17:51.279Z,64.93
2023-06-19T10:18:51.198Z,63.24
2023-06-19T10:19:51.179Z,65.42
2023-06-19T10:20:51.164Z,65.20
2023-06-19T10:21:51.191Z,65.39
2023-06-19T10:22:51.123Z,67.47
2023-06-19T10:23:51.103Z,63.21
2023-06-19T10:24:51.088Z,63.15
2023-06-19T10:25:51.093Z,63.24
2023-06-19T10:26:51.049Z,63.48
2023-06-19T10:27:51.033Z,62.98
2023-06-19T10:28:51.014Z,63.67
2023-06-19T10:29:52.732Z,63.57
2023-06-19T10:30:51.014Z,64.56
2023-06-19T10:31:50.969Z,66.45
2023-06-19T10:32:50.953Z,62.78
2023-06-19T10:33:50.923Z,62.98
2023-06-19T10:34:50.914Z,61.39
2023-06-19T10:35:50.885Z,61.69
2023-06-19T10:36:50.869Z,61.39
2023-06-19T10:37:50.849Z,63.57
2023-06-19T10:38:50.938Z,63.05
2023-06-19T10:39:50.823Z,61.53
2023-06-19T10:40:50.804Z,62.69
2023-06-19T10:41:50.793Z,64.87
2023-06-19T10:42:50.760Z,64.24
2023-06-19T10:43:50.741Z,63.75
2023-06-19T10:44:50.722Z,59.89
2023-06-19T10:45:50.766Z,61.54
2023-06-19T10:46:50.685Z,60.65
2023-06-19T10:47:50.731Z,58.87
2023-06-19T10:48:50.650Z,58.34
2023-06-19T10:49:50.644Z,58.37
2023-06-19T10:50:50.612Z,58.37
2023-06-19T10:51:50.595Z,59.56
2023-06-19T10:52:50.578Z,58.80
2023-06-19T10:53:50.560Z,58.30
2023-06-19T10:54:50.541Z,59.42
2023-06-19T10:55:50.523Z,59.75
2023-06-19T10:56:50.506Z,60.05
2023-06-19T10:57:50.510Z,60.34
2023-06-19T10:58:50.471Z,59.94
2023-06-19T10:59:50.467Z,59.94
2023-06-19T11:00:50.433Z,60.61
2023-06-19T11:01:50.413Z,58.33
2023-06-19T11:02:50.487Z,57.93
2023-06-19T11:03:50.381Z,58.30
2023-06-19T11:04:50.362Z,58.30
2023-06-19T11:05:50.357Z,60.45
2023-06-19T11:06:50.353Z,60.45
2023-06-19T11:07:50.308Z,59.63
2023-06-19T11:08:50.297Z,55.68
2023-06-19T11:09:50.276Z,56.96
2023-06-19T11:10:50.254Z,57.06
2023-06-19T11:11:50.238Z,56.57
2023-06-19T11:12:50.235Z,58.05
2023-06-19T11:13:50.228Z,52.64
2023-06-19T11:14:50.183Z,53.99
2023-06-19T11:15:50.194Z,53.99
2023-06-19T11:16:50.173Z,53.77
2023-06-19T11:17:50.177Z,55.18
2023-06-19T11:18:50.115Z,56.96
2023-06-19T11:19:50.109Z,55.75
2023-06-19T11:20:50.087Z,56.21
2023-06-19T11:21:50.158Z,56.51
2023-06-19T11:22:50.047Z,55.30
2023-06-19T11:23:50.032Z,54.90
2023-06-19T11:24:50.009Z,55.30
2023-06-19T11:25:49.997Z,56.26
2023-06-19T11:26:49.977Z,54.68
2023-06-19T11:27:49.960Z,54.48
2023-06-19T11:28:49.940Z,52.41
2023-06-19T11:29:49.944Z,50.07
2023-06-19T11:30:49.927Z,52.17
2023-06-19T11:31:50.001Z,50.48
2023-06-19T11:32:49.979Z,51.75
2023-06-19T11:33:49.859Z,52.66
2023-06-19T11:34:49.835Z,53.62
2023-06-19T11:35:49.928Z,52.53
2023-06-19T11:36:49.803Z,54.02
2023-06-19T11:37:49.789Z,51.32
2023-06-19T11:38:49.767Z,53.00
2023-06-19T11:39:49.750Z,52.98
2023-06-19T11:40:49.733Z,51.69
2023-06-19T11:41:49.716Z,50.12
2023-06-19T11:42:49.706Z,49.20
2023-06-19T11:43:49.687Z,50.09
2023-06-19T11:44:49.666Z,50.76
2023-06-19T11:45:49.721Z,50.56
2023-06-19T11:46:49.671Z,49.65
2023-06-19T11:47:49.649Z,51.12
2023-06-19T11:49:06.262Z,47.78
2023-06-19T11:49:49.580Z,47.48
2023-06-19T11:50:49.561Z,50.54
2023-06-19T11:51:49.547Z,47.97
2023-06-19T11:52:49.537Z,48.57
2023-06-19T11:53:49.512Z,49.26
2023-06-19T11:54:49.496Z,47.41
2023-06-19T11:55:49.477Z,48.96
2023-06-19T11:56:49.470Z,49.06
2023-06-19T11:57:49.447Z,48.47
2023-06-19T11:58:49.433Z,48.54
2023-06-19T11:59:49.413Z,46.99
2023-06-19T12:00:49.417Z,46.79
2023-06-19T12:01:49.419Z,45.68
2023-06-19T12:02:49.457Z,46.00
2023-06-19T12:03:49.619Z,48.35
2023-06-19T12:04:49.388Z,47.68
2023-06-19T12:05:49.315Z,47.28
2023-06-19T12:06:49.299Z,47.50
2023-06-19T12:07:49.281Z,46.34
2023-06-19T12:08:49.267Z,48.91
2023-06-19T12:09:49.263Z,45.85
2023-06-19T12:10:49.259Z,46.15
2023-06-19T12:11:49.231Z,46.03
2023-06-19T12:12:49.203Z,48.69
2023-06-19T12:13:49.182Z,46.03
2023-06-19T12:14:49.170Z,45.56
2023-06-19T12:15:49.169Z,44.27
2023-06-19T12:16:49.219Z,45.34
2023-06-19T12:17:49.310Z,44.33
2023-06-19T12:18:49.111Z,45.43
2023-06-19T12:19:49.088Z,45.21
2023-06-19T12:20:49.074Z,46.30
2023-06-19T12:21:49.056Z,49.45
2023-06-19T12:22:49.048Z,44.43
2023-06-19T12:23:49.041Z,45.88
2023-06-19T12:24:49.009Z,43.74
2023-06-19T12:25:48.992Z,47.78
2023-06-19T12:26:48.983Z,44.62
2023-06-19T12:27:48.960Z,43.07
2023-06-19T12:28:49.954Z,44.25
2023-06-19T12:29:48.930Z,44.18
2023-06-19T12:30:48.928Z,43.66
2023-06-19T12:31:48.933Z,43.15
2023-06-19T12:32:48.947Z,45.90
2023-06-19T12:33:48.886Z,43.32
2023-06-19T12:34:48.848Z,45.59
2023-06-19T12:35:48.841Z,43.82
2023-06-19T12:36:48.846Z,41.55
2023-06-19T12:37:48.806Z,43.15
2023-06-19T12:38:48.798Z,43.34
2023-06-19T12:39:48.774Z,44.01
2023-06-19T12:40:48.757Z,44.01
2023-06-19T12:41:48.754Z,42.83
2023-06-19T12:42:48.757Z,44.01
2023-06-19T12:43:48.715Z,46.06
2023-06-19T12:44:48.702Z,47.04
2023-06-19T12:45:48.729Z,45.92
2023-06-19T12:46:48.773Z,51.20
2023-06-19T12:47:48.661Z,48.82
2023-06-19T12:48:48.627Z,45.26
2023-06-19T12:49:48.679Z,43.66
2023-06-19T12:50:48.601Z,47.37
2023-06-19T12:51:48.579Z,45.90
2023-06-19T12:52:48.565Z,39.98